Time;durP1;ratioP1;P1;durP2;ratioP2;P2;SDS_P1;SDS_P2;PMS_P1;PMS_P2;Temp;Humidity;BMP_temperature;BMP_pressure;BME280_temperature;BME280_humidity;BME280_pressure;Samples;Min_cycle;Max_cycle;Signal;HPM_P1;HPM_P2
2021/06/02 00:00:39;;;;;;;5.28;4.40;;;;;;;22.25;57.18;99352.31;2084797;28;20342;-58
2021/06/02 00:01:47;;;;;;;5.30;4.27;;;;;;;22.23;56.91;99340.66;2088064;28;20020;-57
2021/06/02 00:02:49;;;;;;;5.38;3.85;;;;;;;22.24;57.11;99342.38;2088838;28;20029;-58
2021/06/02 00:03:51;;;;;;;4.60;4.05;;;;;;;22.23;57.09;99343.41;2084898;28;20021;-58
2021/06/02 00:04:52;;;;;;;;;;;;;;;22.20;57.16;99349.28;2088002;28;20025;-58
2021/06/02 00:05:55;;;;;;;4.78;4.32;;;;;;;22.21;57.33;99347.38;2086890;28;19974;-57
2021/06/02 00:06:58;;;;;;;4.63;3.90;;;;;;;22.22;57.00;99360.06;2088349;28;20067;-58
2021/06/02 00:07:59;;;;;;;6.78;4.00;;;;;;;22.21;57.21;99353.72;2087295;28;20021;-58
2021/06/02 00:09:01;;;;;;;5.13;4.22;;;;;;;22.23;57.05;99346.16;2078294;28;20036;-58
2021/06/02 00:10:01;;;;;;;4.40;3.80;;;;;;;22.22;57.40;99349.97;2085738;28;20035;-57
2021/06/02 00:11:05;;;;;;;4.67;3.80;;;;;;;22.22;57.32;99347.22;2092860;28;20035;-58
2021/06/02 00:12:10;;;;;;;5.28;4.15;;;;;;;22.22;57.34;99349.97;2087373;28;20374;-58
2021/06/02 00:13:12;;;;;;;5.65;3.90;;;;;;;22.24;57.17;99347.00;2089860;28;20339;-58
2021/06/02 00:14:17;;;;;;;4.40;3.63;;;;;;;22.21;57.34;99348.25;2079992;28;20501;-57
2021/06/02 00:15:17;;;;;;;4.60;3.92;;;;;;;22.22;57.12;99349.97;2078999;28;20104;-58
2021/06/02 00:16:18;;;;;;;4.27;3.83;;;;;;;22.22;57.20;99352.69;2081361;28;20120;-58
2021/06/02 00:17:19;;;;;;;4.70;4.20;;;;;;;22.21;57.52;99350.97;2089153;28;20048;-58
2021/06/02 00:18:19;;;;;;;5.67;3.40;;;;;;;22.21;57.13;99348.25;2089853;28;20393;-58
2021/06/02 00:19:21;;;;;;;4.33;3.93;;;;;;;22.21;57.22;99345.50;2082183;28;20024;-58
2021/06/02 00:20:21;;;;;;;4.35;3.95;;;;;;;22.22;57.25;99349.97;2087624;28;20022;-58
2021/06/02 00:21:22;;;;;;;6.07;4.07;;;;;;;22.21;57.22;99348.25;2084845;28;20027;-58
2021/06/02 00:22:22;;;;;;;4.97;4.10;;;;;;;22.22;57.39;99343.59;2089575;28;20054;-58
2021/06/02 00:23:23;;;;;;;5.67;4.40;;;;;;;22.22;57.41;99346.34;2089335;28;20107;-57
2021/06/02 00:24:25;;;;;;;4.93;3.40;;;;;;;22.21;57.22;99345.50;2087173;28;20024;-58
2021/06/02 00:25:25;;;;;;;6.40;4.13;;;;;;;22.21;57.53;99348.25;2082228;28;20036;-58
2021/06/02 00:26:26;;;;;;;5.87;4.23;;;;;;;22.21;57.39;99350.97;2088960;28;20094;-58
2021/06/02 00:27:29;;;;;;;5.88;4.43;;;;;;;22.21;57.38;99347.38;2089697;28;20089;-58
2021/06/02 00:28:30;;;;;;;4.97;4.40;;;;;;;22.20;57.14;99338.31;2089790;28;20028;-58
2021/06/02 00:29:34;;;;;;;4.97;4.23;;;;;;;22.20;57.19;99341.06;2087296;28;20048;-57
2021/06/02 00:30:36;;;;;;;6.25;4.00;;;;;;;22.21;57.17;99347.38;2089352;28;20267;-58
2021/06/02 00:31:43;;;;;;;5.07;3.83;;;;;;;22.20;57.28;99345.69;2079642;28;20088;-58
2021/06/02 00:32:44;;;;;;;5.32;3.75;;;;;;;22.21;57.14;99353.72;2080115;28;20021;-58
2021/06/02 00:33:45;;;;;;;4.53;4.03;;;;;;;22.21;57.44;99350.97;2088241;28;20070;-58
2021/06/02 00:34:47;;;;;;;5.13;3.97;;;;;;;22.21;57.34;99358.38;2087659;28;20059;-57
2021/06/02 00:35:52;;;;;;;5.07;4.57;;;;;;;22.20;57.39;99362.16;2089333;28;20033;-58
2021/06/02 00:36:53;;;;;;;4.60;3.58;;;;;;;22.20;57.24;99363.00;2089475;28;20039;-57
2021/06/02 00:37:54;;;;;;;3.87;3.47;;;;;;;22.20;57.45;99360.28;2088114;28;20079;-58
2021/06/02 00:38:55;;;;;;;4.93;3.92;;;;;;;22.20;57.16;99362.16;2089553;28;20029;-58
2021/06/02 00:39:56;;;;;;;6.13;4.00;;;;;;;22.20;57.51;99368.50;2084390;28;20033;-58
2021/06/02 00:40:57;;;;;;;4.78;4.25;;;;;;;22.20;57.12;99363.00;2086101;28;20096;-58
2021/06/02 00:42:00;;;;;;;4.13;3.67;;;;;;;22.20;57.61;99367.66;2087458;28;20061;-58
2021/06/02 00:43:02;;;;;;;5.82;4.00;;;;;;;22.19;57.42;99366.75;2086267;28;20056;-58
2021/06/02 00:44:17;;;;;;;5.00;3.95;;;;;;;22.19;57.66;99360.41;2087439;28;20029;-58
2021/06/02 00:45:18;;;;;;;4.18;3.50;;;;;;;22.19;57.30;99355.78;2089051;28;20032;-58
2021/06/02 00:46:20;;;;;;;3.92;3.53;;;;;;;22.19;57.39;99355.78;2086349;28;20436;-58
2021/06/02 00:47:23;;;;;;;4.65;4.07;;;;;;;22.19;57.48;99350.28;2089424;28;20031;-58
2021/06/02 00:48:23;;;;;;;4.50;3.90;;;;;;;22.19;57.35;99349.44;2087990;28;20051;-57
2021/06/02 00:49:25;;;;;;;5.07;4.40;;;;;;;22.19;57.43;99350.28;2087520;28;20466;-58
2021/06/02 00:50:26;;;;;;;6.28;4.03;;;;;;;22.18;57.44;99354.06;2084107;28;20112;-58
2021/06/02 00:51:26;;;;;;;4.60;3.65;;;;;;;22.18;57.49;99353.22;2086438;28;20443;-58
2021/06/02 00:52:27;;;;;;;5.83;4.20;;;;;;;22.19;57.42;99358.50;2089787;28;20052;-58
2021/06/02 00:53:28;;;;;;;5.33;3.93;;;;;;;22.19;57.44;99352.19;2088022;28;20110;-58
2021/06/02 00:54:31;;;;;;;5.35;3.75;;;;;;;22.18;57.34;99351.34;2090073;28;20052;-58
2021/06/02 00:55:32;;;;;;;3.90;3.47;;;;;;;22.18;57.22;99351.34;2089828;28;20114;-58
2021/06/02 00:56:41;;;;;;;4.77;3.97;;;;;;;22.17;57.63;99352.38;2084033;28;20017;-58
2021/06/02 00:57:48;;;;;;;3.97;3.40;;;;;;;22.17;57.59;99352.38;2086848;28;20112;-58
2021/06/02 00:58:50;;;;;;;5.30;4.05;;;;;;;22.17;57.34;99349.63;2081296;28;20033;-58
2021/06/02 01:00:08;;;;;;;5.85;4.22;;;;;;;22.16;57.66;99350.66;2090577;28;20684;-57
2021/06/02 01:01:09;;;;;;;4.32;3.85;;;;;;;22.16;57.54;99356.16;2090319;28;20185;-58
2021/06/02 01:02:18;;;;;;;4.35;3.90;;;;;;;22.17;57.29;99357.88;2088629;28;20024;-58
2021/06/02 01:03:23;;;;;;;3.75;3.30;;;;;;;22.18;57.32;99367.81;2083476;28;20030;-57
2021/06/02 01:04:26;;;;;;;4.72;3.70;;;;;;;22.18;57.24;99367.81;2086458;28;20066;-58
2021/06/02 01:05:27;;;;;;;5.22;3.92;;;;;;;22.17;57.31;99368.84;2087592;28;20044;-58
2021/06/02 01:06:29;;;;;;;4.07;3.67;;;;;;;22.18;57.54;99358.72;2087395;28;20088;-58
2021/06/02 01:07:32;;;;;;;5.35;4.25;;;;;;;22.17;57.66;99354.25;2086914;28;20537;-58
2021/06/02 01:08:35;;;;;;;4.57;3.72;;;;;;;22.17;57.31;99357.00;2082991;28;20026;-58
2021/06/02 01:09:39;;;;;;;5.65;3.80;;;;;;;22.17;57.63;99363.38;2086645;28;20029;-58
2021/06/02 01:10:40;;;;;;;4.30;3.58;;;;;;;22.17;57.41;99363.38;2089158;28;20074;-57
2021/06/02 01:11:42;;;;;;;5.30;4.10;;;;;;;22.17;57.45;99374.34;2075225;28;20440;-58
2021/06/02 01:12:43;;;;;;;4.15;3.67;;;;;;;22.17;57.34;99374.34;2080997;28;20324;-58
2021/06/02 01:13:44;;;;;;;4.80;3.83;;;;;;;22.18;57.54;99370.53;2086806;28;20025;-57
2021/06/02 01:14:45;;;;;;;5.37;4.47;;;;;;;22.19;57.47;99365.91;2085780;28;20021;-58
2021/06/02 01:15:48;;;;;;;4.80;3.63;;;;;;;22.18;57.32;99369.69;2084779;28;20020;-58
2021/06/02 01:16:49;;;;;;;5.32;3.88;;;;;;;22.18;57.63;99366.97;2088961;28;20094;-58
2021/06/02 01:17:49;;;;;;;4.73;3.50;;;;;;;22.17;57.50;99367.97;2081733;28;20088;-58
2021/06/02 01:18:50;;;;;;;5.30;3.67;;;;;;;22.17;57.59;99363.38;2087529;28;20625;-58
2021/06/02 01:19:53;;;;;;;7.30;4.50;;;;;;;22.17;57.59;99368.84;2093911;28;20024;-58
2021/06/02 01:21:00;;;;;;;5.75;4.10;;;;;;;22.16;57.73;99378.09;2084394;28;20021;-57
2021/06/02 01:22:01;;;;;;;4.80;4.03;;;;;;;22.16;57.49;99372.63;2084345;28;20056;-57
2021/06/02 01:23:02;;;;;;;4.65;3.90;;;;;;;22.17;57.55;99374.34;2089961;28;20432;-58
2021/06/02 01:24:03;;;;;;;7.77;4.50;;;;;;;22.17;57.71;99379.84;2085569;28;20083;-58
2021/06/02 01:25:15;;;;;;;4.17;3.63;;;;;;;22.17;57.39;99385.31;2086700;28;20275;-57
2021/06/02 01:26:17;;;;;;;4.90;3.55;;;;;;;22.17;57.50;99385.31;2082391;28;20339;-58
2021/06/02 01:27:17;;;;;;;4.10;3.40;;;;;;;22.16;57.53;99383.59;2086086;28;20021;-57
2021/06/02 01:28:18;;;;;;;5.70;3.90;;;;;;;22.17;57.43;99390.81;2088027;28;20601;-58
2021/06/02 01:29:18;;;;;;;4.93;4.03;;;;;;;22.16;57.54;99383.59;2088260;28;20410;-58
2021/06/02 01:30:21;;;;;;;5.27;3.90;;;;;;;22.17;57.64;99387.19;2090448;28;20024;-58
2021/06/02 01:31:43;;;;;;;5.25;3.65;;;;;;;22.15;57.65;99387.41;2083538;28;20022;-58
2021/06/02 01:33:07;;;;;;;4.65;3.90;;;;;;;22.15;57.58;99387.41;2083048;28;20048;-58
2021/06/02 01:34:42;;;;;;;4.10;3.70;;;;;;;22.13;57.75;99383.13;2084943;28;20138;-58
2021/06/02 01:35:53;;;;;;;6.40;3.80;;;;;;;22.13;57.88;99378.50;2052428;28;20034;-58
2021/06/02 01:37:02;;;;;;;5.28;3.65;;;;;;;22.12;57.72;99375.94;2078070;28;20030;-58
2021/06/02 01:38:25;;;;;;;3.80;3.40;;;;;;;22.11;58.09;99377.81;2084027;28;20400;-58
2021/06/02 01:40:00;;;;;;;4.00;3.45;;;;;;;22.11;57.92;99382.47;2052008;28;20620;-58
2021/06/02 01:41:21;;;;;;;4.55;4.07;;;;;;;22.09;58.03;99382.63;2082673;28;20438;-58
2021/06/02 01:42:43;;;;;;;5.13;3.83;;;;;;;22.10;58.05;99386.22;2079237;28;20428;-58
2021/06/02 01:43:50;;;;;;;4.15;3.75;;;;;;;22.09;58.18;99385.38;2080699;28;20036;-58
2021/06/02 01:45:16;;;;;;;5.40;3.63;;;;;;;22.09;58.19;99384.53;2083806;28;20451;-58
2021/06/02 01:46:29;;;;;;;4.40;3.63;;;;;;;22.09;58.33;99384.53;2086102;28;20064;-57
2021/06/02 01:48:06;;;;;;;5.18;3.80;;;;;;;22.08;58.22;99386.44;2082905;28;20028;-58
2021/06/02 01:49:29;;;;;;;4.03;3.40;;;;;;;22.07;57.99;99381.13;2081532;28;20029;-57
2021/06/02 01:51:07;;;;;;;5.05;3.83;;;;;;;22.06;58.00;99377.53;2087386;28;20029;-58
2021/06/02 01:52:35;;;;;;;5.22;3.70;;;;;;;22.06;58.11;99385.75;2041902;29;20031;-58
2021/06/02 01:53:41;;;;;;;4.47;3.40;;;;;;;22.06;58.30;99377.53;2040185;29;20027;-58
2021/06/02 01:55:06;;;;;;;4.53;3.65;;;;;;;22.05;58.17;99386.81;2043114;29;20083;-57
2021/06/02 01:56:41;;;;;;;5.13;3.72;;;;;;;22.03;58.25;99383.41;2044759;29;20027;-58
2021/06/02 01:58:06;;;;;;;4.00;3.25;;;;;;;22.05;58.26;99386.81;2058320;28;20067;-58
2021/06/02 01:59:09;;;;;;;3.95;3.25;;;;;;;22.05;58.22;99386.81;2086308;28;20021;-58
2021/06/02 02:00:28;;;;;;;4.70;3.78;;;;;;;22.04;58.26;99385.94;2083801;28;20431;-58
2021/06/02 02:01:47;;;;;;;4.90;3.72;;;;;;;22.04;58.28;99394.19;2089018;28;20115;-57
2021/06/02 02:03:09;;;;;;;3.97;3.58;;;;;;;22.06;58.23;99399.50;2087412;28;20029;-58
2021/06/02 02:04:15;;;;;;;3.88;3.47;;;;;;;22.08;58.03;99397.41;2078006;28;20519;-58
2021/06/02 02:05:57;;;;;;;4.40;3.63;;;;;;;22.10;58.21;99389.84;2075555;28;20021;-58
2021/06/02 02:07:31;;;;;;;3.75;3.30;;;;;;;22.10;58.05;99400.84;2084722;28;20029;-58
2021/06/02 02:09:02;;;;;;;4.22;3.38;;;;;;;22.07;58.08;99398.44;2081305;28;20056;-58
2021/06/02 02:10:27;;;;;;;5.10;3.58;;;;;;;22.07;57.98;99401.19;2093421;28;20025;-58
2021/06/02 02:11:41;;;;;;;4.43;3.78;;;;;;;22.07;57.87;99395.69;2086682;28;20426;-58
2021/06/02 02:12:57;;;;;;;5.05;3.35;;;;;;;22.08;58.07;99393.81;2082949;28;20025;-58
2021/06/02 02:13:57;;;;;;;3.88;3.25;;;;;;;22.07;57.96;99394.84;2089367;28;20036;-58
2021/06/02 02:15:33;;;;;;;4.00;3.40;;;;;;;22.07;57.96;99394.84;2087319;28;20528;-58
2021/06/02 02:16:52;;;;;;;4.32;3.20;;;;;;;22.05;58.04;99400.53;2085641;28;20039;-58
2021/06/02 02:18:31;;;;;;;4.60;3.47;;;;;;;22.06;58.13;99399.50;2085988;28;20022;-58
2021/06/02 02:19:53;;;;;;;4.40;3.45;;;;;;;22.03;58.22;99394.38;2084132;28;20019;-58
2021/06/02 02:21:27;;;;;;;4.78;3.75;;;;;;;22.04;58.00;99396.06;2083328;28;20034;-58
2021/06/02 02:22:33;;;;;;;5.07;3.70;;;;;;;22.04;58.17;99402.41;2056008;28;20349;-58
2021/06/02 02:23:45;;;;;;;4.63;3.85;;;;;;;22.06;58.04;99402.22;2087497;28;20498;-58
2021/06/02 02:24:58;;;;;;;4.07;3.17;;;;;;;22.05;58.14;99403.28;2087228;28;20025;-58
2021/06/02 02:26:24;;;;;;;5.07;3.10;;;;;;;22.04;58.24;99401.56;2079883;28;20038;-58
2021/06/02 02:27:30;;;;;;;5.00;3.30;;;;;;;22.05;58.01;99404.13;2075884;28;20087;-58
2021/06/02 02:29:02;;;;;;;4.30;3.58;;;;;;;22.05;58.24;99408.78;2088444;28;20047;-58
2021/06/02 02:30:22;;;;;;;4.30;3.50;;;;;;;22.05;58.14;99409.63;2086452;28;20037;-52
2021/06/02 02:31:31;;;;;;;4.07;3.28;;;;;;;22.10;57.96;99406.31;2088547;28;20316;-58
2021/06/02 02:32:46;;;;;;;4.35;3.50;;;;;;;22.10;58.02;99416.41;2084841;28;20060;-58
2021/06/02 02:34:08;;;;;;;5.35;3.42;;;;;;;22.13;57.70;99416.91;2085566;28;20052;-58
2021/06/02 02:35:24;;;;;;;3.90;3.40;;;;;;;22.13;57.85;99416.91;2079374;28;20033;-57
2021/06/02 02:36:39;;;;;;;5.95;3.33;;;;;;;22.14;58.01;99415.88;2086820;28;20031;-58
2021/06/02 02:37:45;;;;;;;4.82;3.88;;;;;;;22.15;57.84;99417.59;2087287;28;20461;-58
2021/06/02 02:39:10;;;;;;;4.82;3.70;;;;;;;22.17;57.92;99418.25;2087989;28;20414;-57
2021/06/02 02:40:23;;;;;;;6.28;3.47;;;;;;;22.17;57.88;99418.25;2086634;28;20040;-58
2021/06/02 02:41:48;;;;;;;5.10;3.72;;;;;;;22.17;57.77;99418.25;2085642;28;20025;-59
2021/06/02 02:43:10;;;;;;;5.10;3.65;;;;;;;22.19;57.91;99415.31;2071908;28;20141;-60
2021/06/02 02:44:36;;;;;;;5.05;3.95;;;;;;;22.18;58.11;99414.47;2076982;28;20171;-60
2021/06/02 02:46:07;;;;;;;5.43;3.80;;;;;;;22.17;58.05;99414.63;2089791;28;20032;-58
2021/06/02 02:47:15;;;;;;;5.65;3.65;;;;;;;22.17;58.31;99415.53;2086582;28;20511;-59
2021/06/02 02:48:30;;;;;;;4.03;3.38;;;;;;;22.19;58.22;99418.91;2088687;28;20044;-59
2021/06/02 02:49:46;;;;;;;3.92;3.50;;;;;;;22.20;58.22;99414.31;2081462;28;20120;-59
2021/06/02 02:50:50;;;;;;;4.47;3.67;;;;;;;22.21;58.20;99425.09;2085353;28;20039;-58
2021/06/02 02:52:00;;;;;;;4.15;3.75;;;;;;;22.22;58.06;99432.31;2090513;28;20036;-59
2021/06/02 02:53:10;;;;;;;4.57;3.88;;;;;;;22.22;58.12;99426.81;2087718;28;20103;-59
2021/06/02 02:54:18;;;;;;;4.80;3.75;;;;;;;22.21;58.25;99421.50;2088877;28;20032;-59
2021/06/02 02:55:33;;;;;;;4.20;3.13;;;;;;;22.23;58.22;99428.50;2087892;28;20029;-59
2021/06/02 02:56:40;;;;;;;5.25;3.47;;;;;;;22.22;58.14;99432.31;2082586;28;20112;-59
2021/06/02 02:57:44;;;;;;;5.45;3.85;;;;;;;22.24;58.29;99435.72;2085934;28;20052;-59
2021/06/02 02:59:15;;;;;;;4.82;3.90;;;;;;;22.22;58.10;99432.31;2087108;28;20715;-59
2021/06/02 03:00:19;;;;;;;5.25;3.67;;;;;;;22.22;58.06;99424.06;2085936;28;20032;-59
2021/06/02 03:01:46;;;;;;;5.40;3.60;;;;;;;22.22;58.46;99436.94;2088010;28;20033;-59
2021/06/02 03:02:57;;;;;;;4.43;3.70;;;;;;;22.22;58.44;99432.31;2086792;28;20044;-59
2021/06/02 03:04:10;;;;;;;4.30;3.88;;;;;;;22.22;58.33;99431.44;2083942;28;20394;-58
2021/06/02 03:05:21;;;;;;;7.30;3.83;;;;;;;22.24;58.37;99435.72;2083852;28;20056;-57
2021/06/02 03:06:29;;;;;;;4.50;3.42;;;;;;;22.25;58.51;99436.56;2089145;28;20013;-59
2021/06/02 03:07:36;;;;;;;6.63;3.80;;;;;;;22.24;58.53;99435.72;2081013;28;20491;-59
2021/06/02 03:09:03;;;;;;;6.28;3.60;;;;;;;22.23;58.38;99428.50;2084215;28;20017;-59
2021/06/02 03:10:15;;;;;;;4.85;3.40;;;;;;;22.24;58.51;99438.47;2083525;28;20095;-59
2021/06/02 03:11:28;;;;;;;4.47;3.70;;;;;;;22.24;58.19;99435.72;2084972;28;20028;-59
2021/06/02 03:12:48;;;;;;;4.32;3.65;;;;;;;22.25;58.26;99425.59;2087477;28;20082;-59
2021/06/02 03:14:08;;;;;;;3.80;3.30;;;;;;;22.22;58.32;99429.56;2084830;28;20025;-59
2021/06/02 03:15:10;;;;;;;10.45;3.20;;;;;;;22.25;58.43;99426.44;2088518;28;20132;-59
2021/06/02 03:16:28;;;;;;;3.80;3.15;;;;;;;22.25;58.18;99429.19;2084557;28;21298;-59
2021/06/02 03:17:43;;;;;;;4.03;3.28;;;;;;;22.25;58.30;99429.19;2083379;28;20025;-59
2021/06/02 03:18:51;;;;;;;4.03;3.40;;;;;;;22.26;58.13;99433.63;2082557;28;20037;-59
2021/06/02 03:19:58;;;;;;;5.03;3.42;;;;;;;22.27;58.12;99431.75;2085391;28;20021;-59
2021/06/02 03:21:24;;;;;;;4.65;3.47;;;;;;;22.26;58.46;99425.38;2084467;28;20511;-58
2021/06/02 03:22:59;;;;;;;4.10;3.35;;;;;;;22.25;58.11;99423.69;2078061;28;20021;-58
2021/06/02 03:24:22;;;;;;;7.85;3.88;;;;;;;22.25;58.14;99420.94;2083835;28;20040;-59
2021/06/02 03:25:25;;;;;;;;;;;;;;;22.21;58.33;99430.59;2082428;28;20025;-59
2021/06/02 03:26:30;;;;;;;5.72;3.60;;;;;;;22.22;58.34;99426.81;2084925;28;19955;-59
2021/06/02 03:27:36;;;;;;;4.75;3.63;;;;;;;22.23;58.22;99428.50;2087429;28;20025;-58
2021/06/02 03:29:04;;;;;;;3.85;3.20;;;;;;;22.25;58.17;99431.09;2087380;28;20175;-59
2021/06/02 03:30:21;;;;;;;4.32;3.60;;;;;;;22.24;58.42;99423.88;2085549;28;20032;-59
2021/06/02 03:31:25;;;;;;;4.78;3.50;;;;;;;22.23;58.42;99416.69;2081219;28;20060;-59
2021/06/02 03:32:55;;;;;;;4.63;3.05;;;;;;;22.23;58.15;99423.03;2087917;28;20398;-59
2021/06/02 03:34:13;;;;;;;4.28;2.95;;;;;;;22.24;58.31;99424.75;2088053;28;20128;-58
2021/06/02 03:35:23;;;;;;;3.97;3.63;;;;;;;22.25;58.34;99425.59;2088201;28;20072;-59
2021/06/02 03:36:34;;;;;;;4.60;3.67;;;;;;;22.25;58.22;99426.44;2085699;28;20025;-59
2021/06/02 03:37:52;;;;;;;3.38;3.00;;;;;;;22.24;58.24;99432.97;2085175;28;20458;-59
2021/06/02 03:39:33;;;;;;;3.50;3.15;;;;;;;22.25;58.43;99431.94;2088123;28;20100;-59
2021/06/02 03:40:52;;;;;;;5.90;3.35;;;;;;;22.25;58.16;99431.94;2060395;28;20241;-58
2021/06/02 03:42:09;;;;;;;4.13;3.20;;;;;;;22.26;58.37;99432.78;2079281;28;20025;-58
2021/06/02 03:43:21;;;;;;;4.22;3.25;;;;;;;22.25;58.48;99431.94;2087908;28;20037;-58
2021/06/02 03:44:55;;;;;;;4.60;3.67;;;;;;;22.26;58.24;99432.78;2082287;28;20326;-58
2021/06/02 03:46:29;;;;;;;4.00;3.60;;;;;;;22.24;58.55;99441.22;2088665;28;20123;-59
2021/06/02 03:48:11;;;;;;;6.35;3.33;;;;;;;22.25;58.64;99442.91;2084179;28;22124;-58
2021/06/02 03:49:14;;;;;;;4.93;3.63;;;;;;;22.25;58.20;99442.91;2086697;28;20040;-58
2021/06/02 03:50:23;;;;;;;3.97;3.28;;;;;;;22.27;58.48;99440.00;2085371;28;20033;-58
2021/06/02 03:52:03;;;;;;;5.68;3.92;;;;;;;22.27;58.37;99448.22;2084775;28;20102;-59
2021/06/02 03:53:52;;;;;;;3.67;3.33;;;;;;;22.28;58.25;99432.59;2084321;28;20127;-58
2021/06/02 03:54:59;;;;;;;3.70;3.22;;;;;;;22.28;58.22;99441.69;2081166;28;20033;-59
2021/06/02 03:56:37;;;;;;;3.88;3.42;;;;;;;22.29;58.16;99437.03;2087112;28;20068;-59
2021/06/02 03:58:14;;;;;;;4.35;3.28;;;;;;;22.25;58.33;99437.41;2085375;28;20037;-59
2021/06/02 03:59:40;;;;;;;5.90;3.40;;;;;;;22.24;58.35;99441.22;2062034;28;20536;-57
2021/06/02 04:00:47;;;;;;;3.30;3.00;;;;;;;22.23;58.37;99438.66;2069475;28;20896;-56
2021/06/02 04:01:58;;;;;;;4.15;3.60;;;;;;;22.26;58.24;99444.59;2075802;28;20578;-57
2021/06/02 04:03:10;;;;;;;4.53;3.38;;;;;;;22.29;58.35;99445.28;2079130;28;20025;-57
2021/06/02 04:04:11;;;;;;;3.95;3.35;;;;;;;22.28;58.48;99440.84;2084896;28;20028;-58
2021/06/02 04:05:39;;;;;;;4.10;3.70;;;;;;;22.28;58.46;99440.84;2089421;28;20021;-57
2021/06/02 04:06:56;;;;;;;4.15;3.00;;;;;;;22.26;58.35;99444.59;2086020;28;20028;-57
2021/06/02 04:08:30;;;;;;;3.72;3.30;;;;;;;22.28;58.65;99446.34;2083935;28;20032;-56
2021/06/02 04:09:42;;;;;;;4.28;3.63;;;;;;;22.26;58.46;99447.34;2049852;28;20113;-57
2021/06/02 04:11:04;;;;;;;4.72;3.90;;;;;;;22.26;58.49;99450.09;2079265;28;20035;-57
2021/06/02 04:12:23;;;;;;;3.75;2.90;;;;;;;22.28;58.55;99451.81;2085347;28;20036;-57
2021/06/02 04:13:55;;;;;;;5.70;4.25;;;;;;;22.25;58.54;99448.41;2087219;28;20020;-56
2021/06/02 04:14:58;;;;;;;4.35;3.33;;;;;;;22.26;58.75;99452.84;2086774;28;20038;-59
2021/06/02 04:16:12;;;;;;;3.30;3.00;;;;;;;22.26;58.68;99450.09;2088525;28;20094;-60
2021/06/02 04:17:15;;;;;;;4.55;3.45;;;;;;;22.30;58.42;99460.72;2085686;28;20025;-57
2021/06/02 04:18:21;;;;;;;4.82;3.15;;;;;;;22.29;58.58;99459.84;2086743;28;20083;-58
2021/06/02 04:19:22;;;;;;;3.88;3.42;;;;;;;22.30;58.69;99463.47;2080099;28;20013;-58
2021/06/02 04:20:24;;;;;;;4.70;3.00;;;;;;;22.29;58.66;99456.25;2086302;28;20061;-59
2021/06/02 04:21:25;;;;;;;;;;;;;;;22.26;58.57;99460.22;2085330;28;20325;-58
2021/06/02 04:22:25;;;;;;;5.00;3.05;;;;;;;22.27;58.48;99461.97;2077462;28;19920;-58
2021/06/02 04:23:28;;;;;;;4.00;2.90;;;;;;;22.28;58.78;99460.06;2088076;28;20419;-59
2021/06/02 04:24:31;;;;;;;5.50;3.28;;;;;;;22.30;58.64;99460.72;2083337;28;20020;-60
2021/06/02 04:25:32;;;;;;;4.95;3.78;;;;;;;22.30;58.79;99457.97;2088275;28;20021;-60
2021/06/02 04:26:35;;;;;;;5.07;3.47;;;;;;;22.30;58.65;99456.09;2090071;28;20099;-60
2021/06/02 04:27:39;;;;;;;5.03;3.20;;;;;;;22.30;58.41;99453.34;2085787;28;20048;-59
2021/06/02 04:28:40;;;;;;;4.00;3.10;;;;;;;22.31;58.62;99454.19;2085157;28;20021;-58
2021/06/02 04:29:48;;;;;;;3.92;3.38;;;;;;;22.30;58.40;99453.34;2083677;28;20635;-57
2021/06/02 04:30:49;;;;;;;3.88;3.47;;;;;;;22.30;58.56;99456.09;2085779;28;20071;-57
2021/06/02 04:31:57;;;;;;;3.95;3.47;;;;;;;22.31;58.72;99460.53;2093904;28;20024;-59
2021/06/02 04:33:00;;;;;;;5.28;3.17;;;;;;;22.31;58.40;99456.94;2086662;28;20427;-58
2021/06/02 04:34:01;;;;;;;3.80;3.38;;;;;;;22.32;58.68;99456.75;2088943;28;20037;-58
2021/06/02 04:35:02;;;;;;;4.07;3.30;;;;;;;22.31;58.31;99457.78;2088932;28;20335;-59
2021/06/02 04:36:05;;;;;;;5.67;3.37;;;;;;;22.31;58.39;99466.00;2085575;28;20041;-59
2021/06/02 04:37:10;;;;;;;3.58;2.95;;;;;;;22.31;58.72;99462.41;2086704;28;20032;-59
2021/06/02 04:38:13;;;;;;;3.90;3.47;;;;;;;22.29;58.69;99465.34;2086949;28;20126;-58
2021/06/02 04:39:13;;;;;;;4.78;3.30;;;;;;;22.31;58.72;99468.75;2088991;28;20037;-59
2021/06/02 04:40:14;;;;;;;4.53;3.23;;;;;;;22.32;58.37;99465.00;2092349;28;20044;-58
2021/06/02 04:41:15;;;;;;;3.67;3.20;;;;;;;22.33;58.42;99465.84;2088056;28;20044;-58
2021/06/02 04:42:17;;;;;;;6.45;3.60;;;;;;;22.32;58.29;99473.22;2084049;28;20107;-58
2021/06/02 04:43:19;;;;;;;3.50;3.20;;;;;;;22.32;58.42;99473.22;2087461;28;20033;-58
2021/06/02 04:44:22;;;;;;;3.97;3.40;;;;;;;22.34;58.66;99473.03;2086089;28;20341;-57
2021/06/02 04:45:26;;;;;;;5.25;3.15;;;;;;;22.32;58.63;99475.09;2083002;28;20054;-57
2021/06/02 04:46:26;;;;;;;4.10;3.08;;;;;;;22.31;58.45;99473.41;2084573;28;20032;-57
2021/06/02 04:47:29;;;;;;;3.60;2.70;;;;;;;22.33;58.24;99476.81;2090066;28;20058;-57
2021/06/02 04:48:30;;;;;;;3.63;3.33;;;;;;;22.34;58.59;99478.50;2080370;28;20842;-57
2021/06/02 04:49:52;;;;;;;3.83;3.17;;;;;;;22.31;58.47;99474.25;2086390;28;20047;-57
2021/06/02 04:51:13;;;;;;;3.47;3.00;;;;;;;22.31;58.40;99477.00;2087740;28;20143;-57
2021/06/02 04:52:32;;;;;;;3.42;2.92;;;;;;;22.30;58.49;99477.19;2085098;28;20021;-57
2021/06/02 04:53:44;;;;;;;4.63;3.38;;;;;;;22.30;58.65;99475.31;2087870;28;20029;-58
2021/06/02 04:54:50;;;;;;;;;;;;;;;22.28;58.54;99479.28;2087494;28;20027;-57
2021/06/02 04:56:13;;;;;;;3.80;3.38;;;;;;;22.27;58.46;99472.94;2088230;28;19959;-58
2021/06/02 04:57:36;;;;;;;3.97;3.03;;;;;;;22.27;58.54;99478.44;2083791;28;20140;-58
2021/06/02 04:58:58;;;;;;;3.80;3.25;;;;;;;22.26;58.42;99471.22;2083266;28;20583;-58
2021/06/02 04:59:58;;;;;;;4.20;3.33;;;;;;;22.27;58.58;99467.44;2082267;28;20021;-58
2021/06/02 05:01:35;;;;;;;3.87;3.23;;;;;;;22.26;58.59;99472.06;2085158;28;20044;-58
2021/06/02 05:03:03;;;;;;;4.18;3.15;;;;;;;22.26;58.64;99466.56;2085608;28;20009;-59
2021/06/02 05:04:19;;;;;;;6.05;4.03;;;;;;;22.28;58.73;99471.03;2081314;28;20025;-58
2021/06/02 05:05:44;;;;;;;4.00;3.03;;;;;;;22.26;58.54;99471.22;2083323;28;20327;-59
2021/06/02 05:07:18;;;;;;;4.65;3.58;;;;;;;22.24;58.67;99460.44;2081818;28;20028;-58
2021/06/02 05:08:50;;;;;;;4.43;2.83;;;;;;;22.24;58.61;99465.94;2085775;28;20045;-58
2021/06/02 05:10:22;;;;;;;3.15;2.85;;;;;;;22.25;58.54;99467.63;2085630;28;20704;-58
2021/06/02 05:11:50;;;;;;;2.85;2.60;;;;;;;22.24;58.77;99468.69;2088133;28;20094;-58
2021/06/02 05:13:18;;;;;;;3.58;2.90;;;;;;;22.23;58.75;99466.94;2082027;28;20032;-58
2021/06/02 05:14:43;;;;;;;5.53;3.35;;;;;;;22.25;58.76;99469.53;2080390;28;20075;-58
2021/06/02 05:16:05;;;;;;;3.22;2.80;;;;;;;22.25;58.66;99470.38;2082672;28;20029;-58
2021/06/02 05:17:20;;;;;;;3.20;2.90;;;;;;;22.25;58.72;99475.84;2085694;28;20025;-58
2021/06/02 05:18:53;;;;;;;5.30;3.58;;;;;;;22.26;58.51;99472.06;2085222;28;20028;-59
2021/06/02 05:20:22;;;;;;;4.00;2.80;;;;;;;22.26;58.60;99468.47;2089042;28;20033;-58
2021/06/02 05:22:05;;;;;;;4.32;3.22;;;;;;;22.25;58.69;99464.88;2081281;28;20037;-58
2021/06/02 05:23:21;;;;;;;3.10;2.78;;;;;;;22.24;58.69;99463.19;2084501;28;20036;-58
2021/06/02 05:24:52;;;;;;;3.22;2.88;;;;;;;22.24;58.71;99463.19;2086739;28;20028;-58
2021/06/02 05:26:15;;;;;;;4.43;3.28;;;;;;;22.25;58.48;99464.88;2080925;28;20275;-58
2021/06/02 05:27:37;;;;;;;3.97;3.40;;;;;;;22.22;58.60;99470.75;2084970;28;20043;-58
2021/06/02 05:29:15;;;;;;;2.70;2.50;;;;;;;22.23;58.46;99474.34;2082639;28;20430;-58
2021/06/02 05:30:37;;;;;;;3.83;3.20;;;;;;;22.23;58.69;99477.09;2084536;28;20020;-58
2021/06/02 05:31:41;;;;;;;4.53;2.95;;;;;;;22.25;58.54;99475.84;2086652;28;20025;-58
2021/06/02 05:32:59;;;;;;;3.67;3.28;;;;;;;22.24;58.62;99470.53;2081893;28;20033;-58
2021/06/02 05:34:38;;;;;;;3.67;3.13;;;;;;;22.25;58.53;99470.38;2087841;28;20032;-58
2021/06/02 05:35:56;;;;;;;4.22;3.00;;;;;;;22.24;58.58;99463.19;2087281;28;20385;-58
2021/06/02 05:37:27;;;;;;;3.88;3.40;;;;;;;22.23;58.61;99475.19;2084149;28;20022;-58
2021/06/02 05:38:49;;;;;;;4.32;3.63;;;;;;;22.24;58.56;99471.41;2082766;28;20022;-57
2021/06/02 05:40:15;;;;;;;4.22;3.40;;;;;;;22.25;58.35;99475.84;2081065;28;20349;-58
2021/06/02 05:41:54;;;;;;;4.90;2.92;;;;;;;22.25;58.74;99475.00;2086414;28;20025;-58
2021/06/02 05:43:13;;;;;;;3.40;2.90;;;;;;;22.23;58.50;99483.41;2082728;28;20780;-58